createdAt,value
2023-05-21T00:04:01.090Z,99.90
2023-05-21T00:09:06.563Z,99.90
2023-05-21T00:14:09.775Z,99.90
2023-05-21T00:19:13.535Z,99.90
2023-05-21T00:24:16.388Z,99.90
2023-05-21T00:29:19.188Z,99.90
2023-05-21T00:34:22.297Z,99.90
2023-05-21T00:39:25.780Z,99.90
2023-05-21T00:44:34.195Z,99.90
2023-05-21T00:49:37.362Z,99.90
2023-05-21T00:54:40.398Z,99.90
2023-05-21T00:59:44.425Z,99.90
2023-05-21T01:04:47.310Z,99.90
2023-05-21T01:09:50.136Z,99.90
2023-05-21T01:14:54.260Z,99.90
2023-05-21T01:19:59.079Z,99.90
2023-05-21T01:25:03.993Z,99.90
2023-05-21T01:30:08.505Z,99.90
2023-05-21T01:35:26.319Z,99.90
2023-05-21T01:40:46.429Z,99.90
2023-05-21T01:45:54.142Z,99.90
2023-05-21T01:51:05.062Z,99.90
2023-05-21T01:56:08.596Z,99.90
2023-05-21T02:01:12.090Z,99.90
2023-05-21T02:06:15.215Z,99.90
2023-05-21T02:11:18.210Z,99.90
2023-05-21T02:16:22.865Z,99.90
2023-05-21T02:21:26.443Z,99.90
2023-05-21T02:26:29.425Z,99.90
2023-05-21T02:31:32.367Z,99.90
2023-05-21T02:36:36.141Z,99.90
2023-05-21T02:41:39.531Z,99.90
2023-05-21T02:46:42.615Z,99.90
2023-05-21T02:51:45.407Z,99.90
2023-05-21T02:56:48.519Z,99.90
2023-05-21T03:01:51.407Z,99.90
2023-05-21T03:06:55.254Z,99.90
2023-05-21T03:11:58.278Z,99.90
2023-05-21T03:17:03.486Z,99.90
2023-05-21T03:22:06.892Z,99.90
2023-05-21T03:27:09.924Z,99.90
2023-05-21T03:32:13.732Z,99.90
2023-05-21T03:37:16.828Z,99.90
2023-05-21T03:42:19.639Z,99.90
2023-05-21T03:47:22.888Z,99.90
2023-05-21T03:52:25.711Z,99.90
2023-05-21T03:57:28.890Z,99.90
2023-05-21T04:02:32.728Z,99.90
2023-05-21T04:07:38.306Z,99.90
2023-05-21T04:12:41.428Z,99.90
2023-05-21T04:17:45.474Z,99.90
2023-05-21T04:22:49.014Z,99.90
2023-05-21T04:27:52.672Z,99.90
2023-05-21T04:32:55.611Z,99.90
2023-05-21T04:37:58.517Z,99.90
2023-05-21T04:43:02.198Z,99.90
2023-05-21T04:48:05.609Z,99.90
2023-05-21T04:53:08.882Z,99.90
2023-05-21T04:58:11.967Z,99.90
2023-05-21T05:03:15.115Z,99.90
2023-05-21T05:08:18.176Z,99.90
2023-05-21T05:13:21.340Z,99.90
2023-05-21T05:18:24.530Z,99.90
2023-05-21T05:23:27.400Z,99.90
2023-05-21T05:28:30.163Z,99.90
2023-05-21T05:33:32.976Z,99.90
2023-05-21T05:38:36.482Z,99.90
2023-05-21T05:43:39.508Z,99.90
2023-05-21T05:48:42.467Z,99.90
2023-05-21T05:53:45.712Z,99.90
2023-05-21T05:58:48.682Z,99.90
2023-05-21T06:03:52.419Z,99.90
2023-05-21T06:08:55.628Z,99.90
2023-05-21T06:14:01.539Z,99.90
2023-05-21T06:19:04.666Z,99.90
2023-05-21T06:24:07.757Z,99.90
2023-05-21T06:29:10.664Z,99.90
2023-05-21T06:34:13.698Z,99.90
2023-05-21T06:39:17.353Z,99.90
2023-05-21T06:44:20.792Z,99.90
2023-05-21T06:49:23.858Z,98.90
2023-05-21T06:54:27.212Z,98.90
2023-05-21T06:59:30.459Z,97.70
2023-05-21T07:04:35.549Z,93.60
2023-05-21T07:09:38.472Z,92.40
2023-05-21T07:14:42.943Z,91.70
2023-05-21T07:19:46.181Z,90.90
2023-05-21T07:24:49.213Z,91.10
2023-05-21T07:29:52.092Z,90.80
2023-05-21T07:34:55.904Z,90.10
2023-05-21T08:08:07.935Z,85.20
2023-05-21T08:13:16.745Z,84.00
2023-05-21T08:18:19.665Z,82.50
2023-05-21T08:23:22.888Z,81.80
2023-05-21T08:28:27.701Z,81.30
2023-05-21T08:33:30.968Z,81.60
2023-05-21T08:38:36.956Z,80.30
2023-05-21T08:43:40.816Z,79.80
2023-05-21T10:14:34.797Z,74.60
2023-05-21T10:19:39.448Z,73.10
2023-05-21T10:24:44.466Z,71.70
2023-05-21T10:29:48.993Z,70.70
2023-05-21T10:34:58.562Z,68.90
2023-05-21T10:40:02.431Z,67.90
2023-05-21T10:45:48.435Z,67.90
2023-05-21T10:51:36.239Z,66.90
2023-05-21T10:57:22.051Z,66.90
2023-05-21T11:02:27.504Z,66.20
2023-05-21T11:07:56.877Z,64.20
2023-05-21T11:13:17.184Z,64.00
2023-05-21T11:18:20.240Z,62.20
2023-05-21T11:23:24.019Z,61.70
2023-05-21T11:28:34.415Z,63.10
2023-05-21T11:33:37.657Z,62.10
2023-05-21T11:38:40.890Z,61.90
2023-05-21T11:43:44.394Z,62.80
2023-05-21T11:48:48.205Z,62.40
2023-05-21T11:53:51.811Z,60.70
2023-05-21T11:58:55.959Z,62.10
2023-05-21T12:03:58.998Z,61.00
2023-05-21T12:09:02.172Z,61.70
2023-05-21T12:14:09.306Z,61.20
2023-05-21T12:19:12.796Z,62.90
2023-05-21T12:24:16.501Z,61.40
2023-05-21T12:29:20.439Z,62.70
2023-05-21T12:34:49.826Z,62.50
2023-05-21T12:39:55.922Z,60.00
2023-05-21T12:44:59.095Z,59.70
2023-05-21T12:50:08.562Z,59.30
2023-05-21T12:55:15.053Z,58.50
2023-05-21T13:00:24.342Z,58.10
2023-05-21T13:05:27.696Z,55.80
2023-05-21T13:10:30.654Z,57.30
2023-05-21T13:15:33.771Z,56.30
2023-05-21T13:20:37.382Z,55.10
2023-05-21T13:25:40.640Z,55.10
2023-05-21T13:30:43.742Z,54.80
2023-05-21T13:35:51.209Z,54.80
2023-05-21T13:40:54.199Z,54.70
2023-05-21T13:45:57.019Z,55.00
2023-05-21T13:51:01.294Z,55.00
2023-05-21T13:56:05.232Z,54.60
2023-05-21T14:01:08.387Z,55.00
2023-05-21T14:06:12.004Z,53.50
2023-05-21T14:11:14.898Z,53.60
2023-05-21T14:16:18.568Z,54.10
2023-05-21T14:21:21.878Z,54.20
2023-05-21T14:26:26.857Z,53.50
2023-05-21T14:31:30.354Z,53.40
2023-05-21T14:36:33.373Z,53.70
2023-05-21T14:41:39.845Z,53.70
2023-05-21T14:46:42.759Z,52.90
2023-05-21T14:51:47.557Z,53.30
2023-05-21T14:56:53.616Z,52.40
2023-05-21T15:01:56.835Z,51.50
2023-05-21T15:07:00.303Z,50.70
2023-05-21T15:12:04.337Z,50.00
2023-05-21T15:17:07.726Z,50.60
2023-05-21T15:22:11.119Z,49.90
2023-05-21T15:27:13.968Z,49.30
2023-05-21T15:32:17.918Z,48.90
2023-05-21T15:37:21.784Z,48.70
2023-05-21T15:42:24.864Z,48.40
2023-05-21T15:47:27.985Z,49.00
2023-05-21T15:52:31.002Z,48.90
2023-05-21T15:57:34.063Z,49.10
2023-05-21T16:02:37.306Z,49.00
2023-05-21T16:07:42.215Z,48.60
2023-05-21T16:12:45.397Z,48.90
2023-05-21T16:17:48.591Z,48.70
2023-05-21T16:22:51.487Z,49.10
2023-05-21T16:27:55.232Z,48.80
2023-05-21T16:32:58.249Z,49.00
2023-05-21T16:38:01.710Z,49.70
2023-05-21T16:43:04.979Z,50.20
2023-05-21T16:48:08.709Z,50.30
2023-05-21T16:53:11.859Z,50.70
2023-05-21T16:58:15.158Z,51.20
2023-05-21T17:03:18.170Z,51.70
2023-05-21T17:08:21.179Z,52.40
2023-05-21T17:13:24.272Z,52.70
2023-05-21T17:18:27.295Z,54.10
2023-05-21T17:23:30.541Z,54.40
2023-05-21T17:28:33.509Z,55.20
2023-05-21T17:33:38.171Z,55.50
2023-05-21T17:38:41.153Z,57.00
2023-05-21T17:43:44.280Z,58.20
2023-05-21T17:48:47.324Z,59.20
2023-05-21T17:53:50.455Z,60.10
2023-05-21T17:58:53.680Z,60.80
2023-05-21T18:03:56.721Z,61.40
2023-05-21T18:08:59.703Z,62.10
2023-05-21T18:14:04.025Z,63.10
2023-05-21T18:19:07.404Z,64.10
2023-05-21T18:24:10.520Z,65.20
2023-05-21T18:29:15.035Z,66.40
2023-05-21T18:34:18.104Z,67.20
2023-05-21T18:39:24.779Z,67.90
2023-05-21T18:44:27.893Z,68.00
2023-05-21T18:49:34.005Z,68.80
2023-05-21T18:54:36.961Z,70.20
2023-05-21T18:59:40.861Z,70.80
2023-05-21T19:04:46.881Z,71.40
2023-05-21T19:09:49.960Z,72.10
2023-05-21T19:14:53.526Z,72.90
2023-05-21T19:19:56.824Z,73.70
2023-05-21T19:25:00.769Z,74.80
2023-05-21T19:30:04.213Z,75.90
2023-05-21T19:35:07.903Z,76.70
2023-05-21T19:40:11.320Z,77.00
2023-05-21T19:45:15.588Z,77.40
2023-05-21T19:50:19.179Z,78.20
2023-05-21T19:55:22.967Z,79.30
2023-05-21T20:00:26.403Z,80.00
2023-05-21T20:05:29.407Z,80.90
2023-05-21T20:10:32.462Z,81.70
2023-05-21T20:15:35.950Z,82.50
2023-05-21T20:20:39.874Z,83.40
2023-05-21T20:25:43.217Z,84.40
2023-05-21T20:30:59.033Z,85.50
2023-05-21T20:36:03.463Z,85.80
2023-05-21T20:41:06.284Z,86.30
2023-05-21T20:46:09.402Z,86.50
2023-05-21T20:51:12.491Z,87.00
2023-05-21T20:56:21.687Z,87.50
2023-05-21T21:01:30.559Z,87.40
2023-05-21T21:06:33.871Z,87.80
2023-05-21T21:11:37.174Z,88.30
2023-05-21T21:16:40.131Z,89.00
2023-05-21T21:21:43.114Z,89.70
2023-05-21T21:26:46.104Z,90.60
2023-05-21T21:31:50.835Z,91.10
2023-05-21T21:36:54.477Z,91.50
2023-05-21T21:41:57.556Z,91.70
2023-05-21T21:47:00.851Z,92.00
2023-05-21T21:52:04.096Z,92.30
2023-05-21T21:57:07.061Z,92.30
2023-05-21T22:02:10.004Z,92.50
2023-05-21T22:07:16.950Z,92.80
2023-05-21T22:12:20.037Z,93.00
2023-05-21T22:17:23.504Z,93.30
2023-05-21T22:22:26.935Z,93.50
2023-05-21T22:27:29.925Z,93.60
2023-05-21T22:32:33.619Z,93.60
2023-05-21T22:37:37.432Z,93.70
2023-05-21T22:42:40.843Z,93.60
2023-05-21T22:47:43.876Z,93.50
2023-05-21T22:52:46.967Z,93.40
2023-05-21T22:57:49.900Z,93.40
2023-05-21T23:02:54.486Z,93.40
2023-05-21T23:07:57.982Z,93.60
2023-05-21T23:13:00.670Z,93.70
2023-05-21T23:18:04.022Z,93.80
2023-05-21T23:23:07.595Z,93.60
2023-05-21T23:28:10.797Z,93.50
2023-05-21T23:33:14.029Z,93.40
2023-05-21T23:38:17.121Z,93.40
2023-05-21T23:43:20.120Z,93.50
2023-05-21T23:48:23.105Z,93.90
2023-05-21T23:53:26.393Z,94.10
2023-05-21T23:58:29.488Z,94.40
